Laredo International Airport

Airport
ICAO code: 
KLRD
Summary
ICAO Region: 
NAM
Territory: 
Location: 
Laredo, Texas,
Coordinates: 
Aerial View: 
27° 32' 36.55" N, 99° 27' 15.103" W
Airport LOS: 
Parallel Runway Operation
Metar
Observation
KLRD 040656Z AUTO 13008KT 10SM CLR 20/18 A2998 RMK AO2 SLP149 T02000178
Station
Laredo, Laredo International Airport
Date/Time
2021-12-04 06:56:00
Wind direction
130°
Wind speed
08 kts
Lowest cloud amount
n/a
Temperature
20°C
Dew point
17.8°C
Humidity
87%
Weather condition
n/a

Description

Laredo International Airport is a public use airport located 6 km northeast of the central business district of Laredo, a city in Webb County, Texas.

Climatology

Hot, semi-arid/Steppe climate (Köppen climate classification BSh) - hot, sometimes extremely hot summers and mild to warm winters, with low annual precipitation.

Runways

Designator Length Width Surface Rops
14/32 1807 46 CON Yes/Yes
17R/35L 2387 46 ASP Yes/Yes
17L/35R 2510 46 CON Yes/Yes
Airport map: 
Aerial View: 

SKYbrary Partners:

Safety knowledge contributed by: